createdAt,value
2023-05-16T00:01:08.287Z,8.03
2023-05-16T00:06:08.188Z,7.80
2023-05-16T00:11:06.350Z,8.90
2023-05-16T00:16:05.114Z,8.23
2023-05-16T00:21:03.707Z,9.43
2023-05-16T00:26:03.681Z,8.53
2023-05-16T00:31:01.930Z,10.30
2023-05-16T00:36:01.279Z,10.40
2023-05-16T00:40:59.483Z,10.27
2023-05-16T00:46:00.739Z,10.70
2023-05-16T00:51:00.012Z,11.40
2023-05-16T00:55:58.269Z,11.40
2023-05-16T01:00:56.974Z,13.70
2023-05-16T01:05:59.224Z,12.80
2023-05-16T01:11:04.414Z,13.67
2023-05-16T01:16:11.090Z,15.03
2023-05-16T01:21:17.573Z,13.73
2023-05-16T01:26:20.397Z,15.20
2023-05-16T01:31:18.668Z,16.37
2023-05-16T01:36:25.957Z,15.33
2023-05-16T01:41:32.366Z,15.10
2023-05-16T01:46:35.019Z,13.77
2023-05-16T01:51:34.380Z,13.03
2023-05-16T01:56:34.741Z,13.07
2023-05-16T02:01:33.422Z,12.50
2023-05-16T02:06:31.999Z,12.60
2023-05-16T02:11:30.218Z,13.53
2023-05-16T02:16:31.622Z,12.43
2023-05-16T02:21:30.078Z,13.47
2023-05-16T02:26:28.525Z,13.40
2023-05-16T02:31:32.719Z,12.07
2023-05-16T02:36:31.046Z,11.93
2023-05-16T02:41:29.047Z,12.80
2023-05-16T02:46:28.829Z,12.10
2023-05-16T02:51:29.812Z,13.10
2023-05-16T02:56:28.038Z,14.37
2023-05-16T03:01:26.476Z,11.77
2023-05-16T03:06:24.838Z,13.63
2023-05-16T03:11:26.091Z,12.50
2023-05-16T03:16:24.222Z,13.70
2023-05-16T03:21:23.201Z,13.93
2023-05-16T03:26:21.495Z,14.37
2023-05-16T03:31:23.299Z,15.23
2023-05-16T03:36:24.408Z,14.57
2023-05-16T03:41:22.693Z,15.40
2023-05-16T03:46:22.506Z,16.00
2023-05-16T03:51:21.606Z,15.20
2023-05-16T03:56:19.604Z,15.33
2023-05-16T04:01:17.816Z,16.17
2023-05-16T04:06:17.483Z,16.10
2023-05-16T04:11:15.605Z,17.80
2023-05-16T04:16:14.045Z,15.67
2023-05-16T04:21:15.368Z,17.27
2023-05-16T04:26:15.294Z,16.77
2023-05-16T04:31:14.281Z,17.10
2023-05-16T04:36:12.689Z,15.37
2023-05-16T04:41:11.239Z,15.30
2023-05-16T04:46:10.837Z,14.77
2023-05-16T04:51:08.936Z,15.40
2023-05-16T04:56:07.601Z,15.80
2023-05-16T05:01:06.139Z,16.27
2023-05-16T05:06:05.940Z,15.50
2023-05-16T05:11:03.981Z,15.63
2023-05-16T05:16:04.848Z,14.17
2023-05-16T05:21:03.235Z,16.07
2023-05-16T05:26:02.653Z,15.40
2023-05-16T05:31:01.012Z,15.73
2023-05-16T05:35:59.032Z,16.00
2023-05-16T05:40:57.659Z,15.53
2023-05-16T05:45:57.540Z,14.07
2023-05-16T05:50:55.622Z,13.70
2023-05-16T05:55:53.971Z,14.23
2023-05-16T06:00:52.156Z,13.53
2023-05-16T06:05:52.334Z,13.63
2023-05-16T06:10:50.475Z,13.83
2023-05-16T06:15:51.891Z,12.33
2023-05-16T06:20:52.213Z,12.27
2023-05-16T06:25:52.307Z,13.33
2023-05-16T06:30:51.787Z,12.97
2023-05-16T06:35:52.565Z,12.07
2023-05-16T06:40:50.767Z,12.00
2023-05-16T06:45:49.009Z,10.60
2023-05-16T06:50:49.391Z,10.93
2023-05-16T06:55:48.916Z,9.23
2023-05-16T07:00:47.482Z,8.20
2023-05-16T07:05:45.887Z,7.97
2023-05-16T07:10:44.771Z,7.40
2023-05-16T07:15:44.380Z,6.70
2023-05-16T07:20:42.597Z,7.60
2023-05-16T07:25:41.324Z,5.90
2023-05-16T07:30:39.623Z,7.40
2023-05-16T07:35:39.103Z,6.50
2023-05-16T07:40:37.638Z,5.50
2023-05-16T07:45:35.972Z,4.83
2023-05-16T07:50:34.931Z,5.27
2023-05-16T07:55:34.631Z,5.20
2023-05-16T08:00:33.059Z,4.80
2023-05-16T08:05:31.495Z,4.73
2023-05-16T08:10:30.001Z,3.77
2023-05-16T08:15:30.105Z,4.93
2023-05-16T08:20:28.808Z,4.30
2023-05-16T08:25:27.192Z,4.63
2023-05-16T08:30:25.718Z,4.10
2023-05-16T08:35:25.266Z,3.37
2023-05-16T08:40:27.621Z,3.77
2023-05-16T08:45:26.977Z,3.73
2023-05-16T08:50:27.644Z,3.83
2023-05-16T08:55:28.463Z,4.00
2023-05-16T09:00:28.034Z,3.40
2023-05-16T09:05:31.268Z,3.57
2023-05-16T09:10:29.622Z,2.70
2023-05-16T09:15:33.280Z,2.90
2023-05-16T09:20:32.984Z,2.70
2023-05-16T09:25:32.674Z,2.93
2023-05-16T09:30:32.640Z,2.80
2023-05-16T09:40:33.824Z,2.87
2023-05-16T09:45:33.062Z,2.70
2023-05-16T09:50:34.500Z,2.37
2023-05-16T09:55:33.434Z,2.93
2023-05-16T10:00:33.058Z,3.20
2023-05-16T10:05:32.731Z,2.73
2023-05-16T10:10:31.859Z,3.17
2023-05-16T10:15:30.746Z,3.10
2023-05-16T10:20:29.346Z,2.97
2023-05-16T10:25:33.354Z,2.97
2023-05-16T10:30:33.344Z,3.03
2023-05-16T10:35:32.929Z,2.20
2023-05-16T10:40:33.047Z,3.33
2023-05-16T10:45:32.116Z,2.97
2023-05-16T10:50:38.112Z,2.90
2023-05-16T10:55:37.843Z,2.90
2023-05-16T11:00:36.134Z,3.50
2023-05-16T11:05:35.562Z,2.50
2023-05-16T11:10:34.338Z,2.77
2023-05-16T11:15:34.825Z,2.27
2023-05-16T11:20:34.587Z,2.37
2023-05-16T11:25:39.418Z,2.97
2023-05-16T11:30:44.407Z,2.30
2023-05-16T11:35:42.928Z,2.53
2023-05-16T11:40:44.573Z,3.67
2023-05-16T11:45:45.161Z,2.47
2023-05-16T11:50:44.040Z,2.83
2023-05-16T11:55:43.165Z,3.90
2023-05-16T12:00:50.001Z,2.60
2023-05-16T12:05:54.802Z,2.40
2023-05-16T12:10:54.105Z,2.33
2023-05-16T12:15:54.134Z,1.80
2023-05-16T12:20:53.071Z,2.30
2023-05-16T12:25:53.149Z,2.60
2023-05-16T12:30:51.440Z,2.03
2023-05-16T12:35:51.707Z,2.33
2023-05-16T12:40:50.067Z,2.20
2023-05-16T12:45:52.996Z,2.00
2023-05-16T12:50:53.541Z,2.60
2023-05-16T12:55:51.752Z,2.40
2023-05-16T13:00:49.788Z,1.73
2023-05-16T13:05:47.995Z,2.40
2023-05-16T13:10:47.378Z,2.03
2023-05-16T13:15:45.966Z,1.97
2023-05-16T13:20:44.573Z,1.90
2023-05-16T13:25:42.863Z,2.03
2023-05-16T13:30:42.457Z,1.80
2023-05-16T13:35:40.542Z,2.10
2023-05-16T13:40:39.058Z,2.20
2023-05-16T13:45:37.742Z,2.23
2023-05-16T13:55:41.752Z,1.63
2023-05-16T14:00:45.122Z,1.63
2023-05-16T14:05:45.207Z,1.60
2023-05-16T14:10:43.469Z,1.90
2023-05-16T14:15:41.737Z,1.77
2023-05-16T14:20:39.806Z,1.50
2023-05-16T14:25:39.622Z,1.70
2023-05-16T14:30:37.851Z,1.73
2023-05-16T14:35:38.267Z,1.57
2023-05-16T14:40:37.018Z,1.93
2023-05-16T14:45:36.630Z,1.50
2023-05-16T14:50:35.430Z,1.67
2023-05-16T14:55:33.686Z,1.20
2023-05-16T15:00:32.197Z,1.70
2023-05-16T15:05:32.098Z,1.30
2023-05-16T15:10:30.515Z,1.40
2023-05-16T15:15:29.076Z,1.40
2023-05-16T15:20:27.953Z,1.40
2023-05-16T15:25:28.168Z,1.20
2023-05-16T15:30:26.832Z,1.20
2023-05-16T15:35:25.141Z,1.00
2023-05-16T15:40:27.023Z,1.67
2023-05-16T15:45:27.222Z,1.60
2023-05-16T15:50:25.910Z,1.70
2023-05-16T15:55:23.964Z,2.10
2023-05-16T16:00:22.755Z,1.20
2023-05-16T16:05:22.379Z,1.37
2023-05-16T16:10:22.575Z,1.77
2023-05-16T16:15:20.767Z,1.37
2023-05-16T16:20:19.026Z,1.60
2023-05-16T16:25:18.699Z,1.23
2023-05-16T16:30:17.141Z,1.10
2023-05-16T16:35:15.438Z,1.20
2023-05-16T16:40:14.266Z,1.10
2023-05-16T16:45:14.016Z,1.00
2023-05-16T16:50:12.884Z,1.13
2023-05-16T16:55:13.144Z,1.53
2023-05-16T17:00:14.444Z,0.80
2023-05-16T17:05:12.559Z,1.07
2023-05-16T17:10:11.585Z,1.03
2023-05-16T17:15:11.168Z,1.40
2023-05-16T17:20:12.753Z,1.40
2023-05-16T17:25:11.696Z,1.33
2023-05-16T17:30:11.230Z,1.10
2023-05-16T17:35:10.795Z,0.90
2023-05-16T17:40:12.121Z,1.40
2023-05-16T17:45:13.905Z,1.53
2023-05-16T17:50:14.574Z,0.93
2023-05-16T17:55:13.442Z,1.57
2023-05-16T18:00:15.110Z,1.27
2023-05-16T18:05:16.647Z,1.00
2023-05-16T18:10:14.755Z,1.30
2023-05-16T18:15:13.062Z,1.10
2023-05-16T18:20:12.527Z,1.37
2023-05-16T18:25:12.502Z,1.20
2023-05-16T18:30:12.732Z,1.07
2023-05-16T18:35:11.251Z,1.13
2023-05-16T18:40:12.386Z,1.20
2023-05-16T18:45:11.114Z,1.40
2023-05-16T18:50:10.495Z,1.90
2023-05-16T18:55:09.662Z,1.30
2023-05-16T19:00:10.667Z,1.13
2023-05-16T19:05:10.758Z,1.43
2023-05-16T19:10:10.289Z,1.30
2023-05-16T19:15:11.887Z,1.47
2023-05-16T19:20:10.856Z,1.53
2023-05-16T19:25:10.104Z,1.50
2023-05-16T19:30:11.934Z,1.33
2023-05-16T19:35:11.012Z,2.20
2023-05-16T19:40:10.254Z,1.70
2023-05-16T19:45:11.273Z,1.60
2023-05-16T19:50:10.238Z,1.20
2023-05-16T19:55:10.657Z,1.37
2023-05-16T20:00:11.880Z,0.90
2023-05-16T20:05:15.025Z,2.10
2023-05-16T20:10:13.806Z,1.20
2023-05-16T20:15:13.591Z,1.23
2023-05-16T20:20:12.440Z,1.13
2023-05-16T20:25:11.847Z,1.83
2023-05-16T20:30:11.072Z,1.27
2023-05-16T20:35:11.516Z,1.13
2023-05-16T20:40:10.751Z,1.00
2023-05-16T20:45:10.223Z,1.17
2023-05-16T20:50:10.760Z,1.13
2023-05-16T20:55:09.377Z,1.00
2023-05-16T21:00:09.045Z,2.33
2023-05-16T21:05:23.261Z,1.87
2023-05-16T21:10:25.110Z,1.10
2023-05-16T21:15:23.695Z,1.27
2023-05-16T21:20:22.428Z,1.10
2023-05-16T21:25:20.731Z,1.30
2023-05-16T21:30:20.618Z,1.60
2023-05-16T21:35:18.714Z,1.33
2023-05-16T21:40:19.309Z,1.17
2023-05-16T21:45:18.911Z,1.70
2023-05-16T21:50:18.360Z,1.20
2023-05-16T21:55:16.424Z,1.53
2023-05-16T22:00:16.067Z,1.00
2023-05-16T22:05:19.195Z,1.30
2023-05-16T22:10:18.707Z,1.10
2023-05-16T22:15:17.178Z,1.17
2023-05-16T22:20:17.292Z,1.20
2023-05-16T22:25:15.787Z,1.13
2023-05-16T22:30:14.178Z,1.03
2023-05-16T22:35:12.612Z,1.10
2023-05-16T22:40:13.066Z,1.30
2023-05-16T22:45:11.797Z,1.30
2023-05-16T22:50:10.659Z,1.40
2023-05-16T22:55:11.533Z,1.10
2023-05-16T23:00:10.802Z,1.80
2023-05-16T23:05:10.077Z,2.00
2023-05-16T23:15:27.250Z,1.30
2023-05-16T23:20:25.764Z,1.70
2023-05-16T23:25:24.382Z,1.50
2023-05-16T23:30:22.584Z,1.10
2023-05-16T23:35:22.196Z,2.03
2023-05-16T23:40:20.651Z,1.70
2023-05-16T23:45:19.069Z,1.43
2023-05-16T23:50:17.437Z,2.00
2023-05-16T23:55:17.376Z,1.90
